sensor_id;sensor_type;location;lat;lon;timestamp;P1;durP1;ratioP1;P2;durP2;ratioP2
209;SDS011;90;48.810;9.120;2023-02-02T00:01:32;6.40;;;2.83;;
209;SDS011;90;48.810;9.120;2023-02-02T00:04:00;9.80;;;3.40;;
209;SDS011;90;48.810;9.120;2023-02-02T00:06:29;7.53;;;3.55;;
209;SDS011;90;48.810;9.120;2023-02-02T00:08:57;5.68;;;3.00;;
209;SDS011;90;48.810;9.120;2023-02-02T00:11:26;9.23;;;4.15;;
209;SDS011;90;48.810;9.120;2023-02-02T00:13:57;7.05;;;3.25;;
209;SDS011;90;48.810;9.120;2023-02-02T00:16:34;6.05;;;3.15;;
209;SDS011;90;48.810;9.120;2023-02-02T00:19:06;10.57;;;4.05;;
209;SDS011;90;48.810;9.120;2023-02-02T00:21:37;8.48;;;3.60;;
209;SDS011;90;48.810;9.120;2023-02-02T00:24:04;8.73;;;3.80;;
209;SDS011;90;48.810;9.120;2023-02-02T00:26:33;8.23;;;3.50;;
209;SDS011;90;48.810;9.120;2023-02-02T00:29:02;7.45;;;3.47;;
209;SDS011;90;48.810;9.120;2023-02-02T00:31:33;6.97;;;3.22;;
209;SDS011;90;48.810;9.120;2023-02-02T00:34:03;5.90;;;3.22;;
209;SDS011;90;48.810;9.120;2023-02-02T00:36:33;8.07;;;3.50;;
209;SDS011;90;48.810;9.120;2023-02-02T00:39:01;6.70;;;3.67;;
209;SDS011;90;48.810;9.120;2023-02-02T00:41:28;12.25;;;3.67;;
209;SDS011;90;48.810;9.120;2023-02-02T00:43:55;7.68;;;4.13;;
209;SDS011;90;48.810;9.120;2023-02-02T00:46:39;10.75;;;4.32;;
209;SDS011;90;48.810;9.120;2023-02-02T00:49:09;11.50;;;3.80;;
209;SDS011;90;48.810;9.120;2023-02-02T00:51:40;7.95;;;3.42;;
209;SDS011;90;48.810;9.120;2023-02-02T00:54:07;4.82;;;3.35;;
209;SDS011;90;48.810;9.120;2023-02-02T00:56:34;7.82;;;3.50;;
209;SDS011;90;48.810;9.120;2023-02-02T00:59:04;7.50;;;3.75;;
209;SDS011;90;48.810;9.120;2023-02-02T01:01:34;5.80;;;3.47;;
209;SDS011;90;48.810;9.120;2023-02-02T01:04:12;13.60;;;3.30;;
209;SDS011;90;48.810;9.120;2023-02-02T01:06:42;10.00;;;3.20;;
209;SDS011;90;48.810;9.120;2023-02-02T01:09:09;5.95;;;3.35;;
209;SDS011;90;48.810;9.120;2023-02-02T01:11:40;5.40;;;3.40;;
209;SDS011;90;48.810;9.120;2023-02-02T01:14:10;12.15;;;3.15;;
209;SDS011;90;48.810;9.120;2023-02-02T01:16:39;6.45;;;3.70;;
209;SDS011;90;48.810;9.120;2023-02-02T01:19:12;5.70;;;3.28;;
209;SDS011;90;48.810;9.120;2023-02-02T01:21:40;4.90;;;2.90;;
209;SDS011;90;48.810;9.120;2023-02-02T01:24:07;7.18;;;3.13;;
209;SDS011;90;48.810;9.120;2023-02-02T01:26:37;3.72;;;2.90;;
209;SDS011;90;48.810;9.120;2023-02-02T01:29:07;6.13;;;4.00;;
209;SDS011;90;48.810;9.120;2023-02-02T01:31:40;5.88;;;3.00;;
209;SDS011;90;48.810;9.120;2023-02-02T01:34:12;4.78;;;3.20;;
209;SDS011;90;48.810;9.120;2023-02-02T01:36:39;6.20;;;3.30;;
209;SDS011;90;48.810;9.120;2023-02-02T01:39:09;7.82;;;3.78;;
209;SDS011;90;48.810;9.120;2023-02-02T01:41:38;6.45;;;3.38;;
209;SDS011;90;48.810;9.120;2023-02-02T01:47:12;10.02;;;4.18;;
209;SDS011;90;48.810;9.120;2023-02-02T01:49:44;5.18;;;3.67;;
209;SDS011;90;48.810;9.120;2023-02-02T01:52:15;8.60;;;3.70;;
209;SDS011;90;48.810;9.120;2023-02-02T01:54:49;4.55;;;3.03;;
209;SDS011;90;48.810;9.120;2023-02-02T01:57:20;9.57;;;4.75;;
209;SDS011;90;48.810;9.120;2023-02-02T01:59:51;4.65;;;3.53;;
209;SDS011;90;48.810;9.120;2023-02-02T02:02:22;8.52;;;3.97;;
209;SDS011;90;48.810;9.120;2023-02-02T02:04:57;9.50;;;3.72;;
209;SDS011;90;48.810;9.120;2023-02-02T02:07:30;7.90;;;4.18;;
209;SDS011;90;48.810;9.120;2023-02-02T02:10:03;9.63;;;3.75;;
209;SDS011;90;48.810;9.120;2023-02-02T02:12:31;8.38;;;3.65;;
209;SDS011;90;48.810;9.120;2023-02-02T02:14:58;9.30;;;4.20;;
209;SDS011;90;48.810;9.120;2023-02-02T02:17:47;10.57;;;3.88;;
209;SDS011;90;48.810;9.120;2023-02-02T02:20:47;5.93;;;3.90;;
209;SDS011;90;48.810;9.120;2023-02-02T02:33:22;9.80;;;3.75;;
209;SDS011;90;48.810;9.120;2023-02-02T02:35:56;6.00;;;3.63;;
209;SDS011;90;48.810;9.120;2023-02-02T02:38:33;7.45;;;4.05;;
209;SDS011;90;48.810;9.120;2023-02-02T02:41:05;4.75;;;3.60;;
209;SDS011;90;48.810;9.120;2023-02-02T02:43:39;8.00;;;3.67;;
209;SDS011;90;48.810;9.120;2023-02-02T02:46:10;6.65;;;3.60;;
209;SDS011;90;48.810;9.120;2023-02-02T02:48:43;9.18;;;3.83;;
209;SDS011;90;48.810;9.120;2023-02-02T02:54:07;10.68;;;4.32;;
209;SDS011;90;48.810;9.120;2023-02-02T02:56:40;8.77;;;3.85;;
209;SDS011;90;48.810;9.120;2023-02-02T02:59:17;9.40;;;4.40;;
209;SDS011;90;48.810;9.120;2023-02-02T03:02:03;7.15;;;3.90;;
209;SDS011;90;48.810;9.120;2023-02-02T03:04:55;6.78;;;4.00;;
209;SDS011;90;48.810;9.120;2023-02-02T03:07:36;12.52;;;3.97;;
209;SDS011;90;48.810;9.120;2023-02-02T03:10:08;4.22;;;3.50;;
209;SDS011;90;48.810;9.120;2023-02-02T03:12:42;5.47;;;3.53;;
209;SDS011;90;48.810;9.120;2023-02-02T03:15:11;6.22;;;3.97;;
209;SDS011;90;48.810;9.120;2023-02-02T03:17:39;9.82;;;4.45;;
209;SDS011;90;48.810;9.120;2023-02-02T03:20:09;6.57;;;3.58;;
209;SDS011;90;48.810;9.120;2023-02-02T03:22:37;5.07;;;3.90;;
209;SDS011;90;48.810;9.120;2023-02-02T03:25:05;9.45;;;4.00;;
209;SDS011;90;48.810;9.120;2023-02-02T03:27:36;10.23;;;3.80;;
209;SDS011;90;48.810;9.120;2023-02-02T03:30:03;3.75;;;2.90;;
209;SDS011;90;48.810;9.120;2023-02-02T03:32:38;4.45;;;3.15;;
209;SDS011;90;48.810;9.120;2023-02-02T03:35:11;5.78;;;3.33;;
209;SDS011;90;48.810;9.120;2023-02-02T03:37:42;4.40;;;2.95;;
209;SDS011;90;48.810;9.120;2023-02-02T03:40:13;7.65;;;3.25;;
209;SDS011;90;48.810;9.120;2023-02-02T03:42:43;5.82;;;3.53;;
209;SDS011;90;48.810;9.120;2023-02-02T03:45:11;7.28;;;3.45;;
209;SDS011;90;48.810;9.120;2023-02-02T03:47:38;9.50;;;3.65;;
209;SDS011;90;48.810;9.120;2023-02-02T03:50:09;6.30;;;3.25;;
209;SDS011;90;48.810;9.120;2023-02-02T03:52:38;7.55;;;3.65;;
209;SDS011;90;48.810;9.120;2023-02-02T03:55:09;9.63;;;3.92;;
209;SDS011;90;48.810;9.120;2023-02-02T03:57:39;8.77;;;4.10;;
209;SDS011;90;48.810;9.120;2023-02-02T04:00:06;9.30;;;3.97;;
209;SDS011;90;48.810;9.120;2023-02-02T04:02:40;8.73;;;3.65;;
209;SDS011;90;48.810;9.120;2023-02-02T04:05:08;8.15;;;4.40;;
209;SDS011;90;48.810;9.120;2023-02-02T04:07:39;5.55;;;3.95;;
209;SDS011;90;48.810;9.120;2023-02-02T04:10:10;6.43;;;3.83;;
209;SDS011;90;48.810;9.120;2023-02-02T04:12:37;12.70;;;4.25;;
209;SDS011;90;48.810;9.120;2023-02-02T04:15:05;7.47;;;3.30;;
209;SDS011;90;48.810;9.120;2023-02-02T04:17:33;14.02;;;4.00;;
209;SDS011;90;48.810;9.120;2023-02-02T04:20:00;4.45;;;3.58;;
209;SDS011;90;48.810;9.120;2023-02-02T04:22:28;7.20;;;4.20;;
209;SDS011;90;48.810;9.120;2023-02-02T04:24:56;12.40;;;4.03;;
209;SDS011;90;48.810;9.120;2023-02-02T04:27:27;14.55;;;4.10;;
209;SDS011;90;48.810;9.120;2023-02-02T04:29:56;7.68;;;4.20;;
209;SDS011;90;48.810;9.120;2023-02-02T04:32:26;11.38;;;4.63;;
209;SDS011;90;48.810;9.120;2023-02-02T04:34:59;6.30;;;4.38;;
209;SDS011;90;48.810;9.120;2023-02-02T04:37:28;6.97;;;4.10;;
209;SDS011;90;48.810;9.120;2023-02-02T04:40:11;4.57;;;3.75;;
209;SDS011;90;48.810;9.120;2023-02-02T04:42:45;8.05;;;4.57;;
209;SDS011;90;48.810;9.120;2023-02-02T04:45:14;10.05;;;3.97;;
209;SDS011;90;48.810;9.120;2023-02-02T04:47:42;13.63;;;4.22;;
209;SDS011;90;48.810;9.120;2023-02-02T04:50:10;7.78;;;3.50;;
209;SDS011;90;48.810;9.120;2023-02-02T04:52:39;8.60;;;3.78;;
209;SDS011;90;48.810;9.120;2023-02-02T04:55:10;7.30;;;3.55;;
209;SDS011;90;48.810;9.120;2023-02-02T04:57:47;10.13;;;4.60;;
209;SDS011;90;48.810;9.120;2023-02-02T05:00:14;11.80;;;4.40;;
209;SDS011;90;48.810;9.120;2023-02-02T05:02:48;9.07;;;4.20;;
209;SDS011;90;48.810;9.120;2023-02-02T05:05:18;11.32;;;4.40;;
209;SDS011;90;48.810;9.120;2023-02-02T05:07:45;12.35;;;3.92;;
209;SDS011;90;48.810;9.120;2023-02-02T05:10:16;8.20;;;4.15;;
209;SDS011;90;48.810;9.120;2023-02-02T05:12:46;11.02;;;3.78;;
209;SDS011;90;48.810;9.120;2023-02-02T05:15:14;8.02;;;4.45;;
209;SDS011;90;48.810;9.120;2023-02-02T05:17:41;11.50;;;4.53;;
209;SDS011;90;48.810;9.120;2023-02-02T05:20:08;7.30;;;4.63;;
209;SDS011;90;48.810;9.120;2023-02-02T05:22:36;7.95;;;4.72;;
209;SDS011;90;48.810;9.120;2023-02-02T05:25:04;8.10;;;4.18;;
209;SDS011;90;48.810;9.120;2023-02-02T05:27:36;7.65;;;4.03;;
209;SDS011;90;48.810;9.120;2023-02-02T05:30:04;10.70;;;3.80;;
209;SDS011;90;48.810;9.120;2023-02-02T05:32:34;8.18;;;4.07;;
209;SDS011;90;48.810;9.120;2023-02-02T05:35:12;13.38;;;4.97;;
209;SDS011;90;48.810;9.120;2023-02-02T05:37:42;7.65;;;4.10;;
209;SDS011;90;48.810;9.120;2023-02-02T05:40:10;10.27;;;4.93;;
209;SDS011;90;48.810;9.120;2023-02-02T05:42:39;10.52;;;4.90;;
209;SDS011;90;48.810;9.120;2023-02-02T05:45:07;6.68;;;4.60;;
209;SDS011;90;48.810;9.120;2023-02-02T05:47:34;7.05;;;3.50;;
209;SDS011;90;48.810;9.120;2023-02-02T05:50:01;7.85;;;4.03;;
209;SDS011;90;48.810;9.120;2023-02-02T05:52:29;7.78;;;4.10;;
209;SDS011;90;48.810;9.120;2023-02-02T05:54:59;6.35;;;4.55;;
209;SDS011;90;48.810;9.120;2023-02-02T05:57:27;7.50;;;3.55;;
209;SDS011;90;48.810;9.120;2023-02-02T05:59:55;9.13;;;4.13;;
209;SDS011;90;48.810;9.120;2023-02-02T06:02:22;11.00;;;4.20;;
209;SDS011;90;48.810;9.120;2023-02-02T06:04:49;6.70;;;4.55;;
209;SDS011;90;48.810;9.120;2023-02-02T06:07:16;4.05;;;3.50;;
209;SDS011;90;48.810;9.120;2023-02-02T06:09:43;11.68;;;4.60;;
209;SDS011;90;48.810;9.120;2023-02-02T06:12:10;9.13;;;3.95;;
209;SDS011;90;48.810;9.120;2023-02-02T06:14:37;11.85;;;4.70;;
209;SDS011;90;48.810;9.120;2023-02-02T06:17:05;14.95;;;5.15;;
209;SDS011;90;48.810;9.120;2023-02-02T06:19:32;10.77;;;4.60;;
209;SDS011;90;48.810;9.120;2023-02-02T06:22:01;8.52;;;4.25;;
209;SDS011;90;48.810;9.120;2023-02-02T06:24:34;9.60;;;5.22;;
209;SDS011;90;48.810;9.120;2023-02-02T06:27:01;8.60;;;4.65;;
209;SDS011;90;48.810;9.120;2023-02-02T06:29:29;13.80;;;4.70;;
209;SDS011;90;48.810;9.120;2023-02-02T06:31:56;12.98;;;4.95;;
209;SDS011;90;48.810;9.120;2023-02-02T06:34:25;9.68;;;4.55;;
209;SDS011;90;48.810;9.120;2023-02-02T06:36:53;14.32;;;4.57;;
209;SDS011;90;48.810;9.120;2023-02-02T06:39:21;10.25;;;4.00;;
209;SDS011;90;48.810;9.120;2023-02-02T06:41:48;10.18;;;4.20;;
209;SDS011;90;48.810;9.120;2023-02-02T06:44:16;13.40;;;4.78;;
209;SDS011;90;48.810;9.120;2023-02-02T06:46:45;9.35;;;4.35;;
209;SDS011;90;48.810;9.120;2023-02-02T06:49:12;9.48;;;4.40;;
209;SDS011;90;48.810;9.120;2023-02-02T06:51:41;8.77;;;4.28;;
209;SDS011;90;48.810;9.120;2023-02-02T06:54:08;6.10;;;4.28;;
209;SDS011;90;48.810;9.120;2023-02-02T06:56:35;7.50;;;4.35;;
209;SDS011;90;48.810;9.120;2023-02-02T06:59:02;7.45;;;3.72;;
209;SDS011;90;48.810;9.120;2023-02-02T07:01:29;5.60;;;4.03;;
209;SDS011;90;48.810;9.120;2023-02-02T07:03:56;8.38;;;4.13;;
209;SDS011;90;48.810;9.120;2023-02-02T07:06:24;7.05;;;4.25;;
209;SDS011;90;48.810;9.120;2023-02-02T07:08:54;4.05;;;3.30;;
209;SDS011;90;48.810;9.120;2023-02-02T07:11:21;6.50;;;3.80;;
209;SDS011;90;48.810;9.120;2023-02-02T07:13:49;6.97;;;3.50;;
209;SDS011;90;48.810;9.120;2023-02-02T07:16:16;7.47;;;3.50;;
209;SDS011;90;48.810;9.120;2023-02-02T07:18:44;9.05;;;3.30;;
209;SDS011;90;48.810;9.120;2023-02-02T07:21:16;5.05;;;2.88;;
209;SDS011;90;48.810;9.120;2023-02-02T07:23:45;4.70;;;3.15;;
209;SDS011;90;48.810;9.120;2023-02-02T07:26:14;4.50;;;3.20;;
209;SDS011;90;48.810;9.120;2023-02-02T07:28:42;3.45;;;3.25;;
209;SDS011;90;48.810;9.120;2023-02-02T07:31:13;6.50;;;3.50;;
209;SDS011;90;48.810;9.120;2023-02-02T07:33:41;10.93;;;3.50;;
209;SDS011;90;48.810;9.120;2023-02-02T07:36:08;6.93;;;3.40;;
209;SDS011;90;48.810;9.120;2023-02-02T07:38:36;6.30;;;3.92;;
209;SDS011;90;48.810;9.120;2023-02-02T07:41:03;6.47;;;3.33;;
209;SDS011;90;48.810;9.120;2023-02-02T07:43:31;4.18;;;3.50;;
209;SDS011;90;48.810;9.120;2023-02-02T07:45:59;6.72;;;3.63;;
209;SDS011;90;48.810;9.120;2023-02-02T07:48:27;9.52;;;3.80;;
209;SDS011;90;48.810;9.120;2023-02-02T07:50:57;8.70;;;3.42;;
209;SDS011;90;48.810;9.120;2023-02-02T07:53:25;9.73;;;3.75;;
209;SDS011;90;48.810;9.120;2023-02-02T07:55:52;9.77;;;4.10;;
209;SDS011;90;48.810;9.120;2023-02-02T07:58:19;11.75;;;3.53;;
209;SDS011;90;48.810;9.120;2023-02-02T08:00:47;4.75;;;3.58;;
209;SDS011;90;48.810;9.120;2023-02-02T08:03:14;9.88;;;3.65;;
209;SDS011;90;48.810;9.120;2023-02-02T08:05:41;5.25;;;3.40;;
209;SDS011;90;48.810;9.120;2023-02-02T08:08:08;6.70;;;3.58;;
209;SDS011;90;48.810;9.120;2023-02-02T08:10:35;5.90;;;4.40;;
209;SDS011;90;48.810;9.120;2023-02-02T08:13:02;8.13;;;3.90;;
209;SDS011;90;48.810;9.120;2023-02-02T08:15:29;5.22;;;4.22;;
209;SDS011;90;48.810;9.120;2023-02-02T08:17:57;9.40;;;4.13;;
209;SDS011;90;48.810;9.120;2023-02-02T08:20:24;5.20;;;4.15;;
209;SDS011;90;48.810;9.120;2023-02-02T08:22:51;4.75;;;3.40;;
209;SDS011;90;48.810;9.120;2023-02-02T08:25:18;7.30;;;3.30;;
209;SDS011;90;48.810;9.120;2023-02-02T08:27:45;10.50;;;3.28;;
209;SDS011;90;48.810;9.120;2023-02-02T08:30:13;9.48;;;3.90;;
209;SDS011;90;48.810;9.120;2023-02-02T08:32:40;6.25;;;3.80;;
209;SDS011;90;48.810;9.120;2023-02-02T08:35:08;11.50;;;3.65;;
209;SDS011;90;48.810;9.120;2023-02-02T08:37:35;6.05;;;3.58;;
209;SDS011;90;48.810;9.120;2023-02-02T08:40:03;5.25;;;3.25;;
209;SDS011;90;48.810;9.120;2023-02-02T08:42:30;4.97;;;3.83;;
209;SDS011;90;48.810;9.120;2023-02-02T08:44:57;11.85;;;3.90;;
209;SDS011;90;48.810;9.120;2023-02-02T08:47:26;5.85;;;3.40;;
209;SDS011;90;48.810;9.120;2023-02-02T08:49:56;7.90;;;4.20;;
209;SDS011;90;48.810;9.120;2023-02-02T08:52:25;8.90;;;4.95;;
209;SDS011;90;48.810;9.120;2023-02-02T08:54:52;8.90;;;3.88;;
209;SDS011;90;48.810;9.120;2023-02-02T08:57:20;8.10;;;4.25;;
209;SDS011;90;48.810;9.120;2023-02-02T08:59:48;13.27;;;4.65;;
209;SDS011;90;48.810;9.120;2023-02-02T09:02:15;4.32;;;3.67;;
209;SDS011;90;48.810;9.120;2023-02-02T09:04:42;8.60;;;4.40;;
209;SDS011;90;48.810;9.120;2023-02-02T09:07:11;10.75;;;4.30;;
209;SDS011;90;48.810;9.120;2023-02-02T09:09:41;7.82;;;4.60;;
209;SDS011;90;48.810;9.120;2023-02-02T09:12:08;7.80;;;3.83;;
209;SDS011;90;48.810;9.120;2023-02-02T09:14:36;15.07;;;4.85;;
209;SDS011;90;48.810;9.120;2023-02-02T09:17:03;7.93;;;4.60;;
209;SDS011;90;48.810;9.120;2023-02-02T09:22:54;9.35;;;4.85;;
209;SDS011;90;48.810;9.120;2023-02-02T09:25:24;8.73;;;4.30;;
209;SDS011;90;48.810;9.120;2023-02-02T09:27:52;10.23;;;4.85;;
209;SDS011;90;48.810;9.120;2023-02-02T09:30:20;16.27;;;5.15;;
209;SDS011;90;48.810;9.120;2023-02-02T09:32:47;8.60;;;5.00;;
209;SDS011;90;48.810;9.120;2023-02-02T09:38:12;13.93;;;5.30;;
209;SDS011;90;48.810;9.120;2023-02-02T09:40:41;9.90;;;5.57;;
209;SDS011;90;48.810;9.120;2023-02-02T09:43:23;12.18;;;4.88;;
209;SDS011;90;48.810;9.120;2023-02-02T09:46:30;10.55;;;5.10;;
209;SDS011;90;48.810;9.120;2023-02-02T09:49:07;13.77;;;6.00;;
209;SDS011;90;48.810;9.120;2023-02-02T09:51:38;6.35;;;4.45;;
209;SDS011;90;48.810;9.120;2023-02-02T09:54:11;11.52;;;4.93;;
209;SDS011;90;48.810;9.120;2023-02-02T09:56:47;6.65;;;5.15;;
209;SDS011;90;48.810;9.120;2023-02-02T09:59:20;13.00;;;4.70;;
209;SDS011;90;48.810;9.120;2023-02-02T10:01:52;15.32;;;4.90;;
209;SDS011;90;48.810;9.120;2023-02-02T10:04:39;6.67;;;5.13;;
209;SDS011;90;48.810;9.120;2023-02-02T10:07:11;14.38;;;5.85;;
209;SDS011;90;48.810;9.120;2023-02-02T10:09:44;16.65;;;5.53;;
209;SDS011;90;48.810;9.120;2023-02-02T10:12:20;13.27;;;5.35;;
209;SDS011;90;48.810;9.120;2023-02-02T10:14:58;9.48;;;5.03;;
209;SDS011;90;48.810;9.120;2023-02-02T10:17:39;8.52;;;4.90;;
209;SDS011;90;48.810;9.120;2023-02-02T10:20:21;6.20;;;4.80;;
209;SDS011;90;48.810;9.120;2023-02-02T10:23:03;8.80;;;5.35;;
209;SDS011;90;48.810;9.120;2023-02-02T10:25:40;18.33;;;5.55;;
209;SDS011;90;48.810;9.120;2023-02-02T10:28:28;7.05;;;4.65;;
209;SDS011;90;48.810;9.120;2023-02-02T10:31:21;13.50;;;4.90;;
209;SDS011;90;48.810;9.120;2023-02-02T10:34:30;10.15;;;5.00;;
209;SDS011;90;48.810;9.120;2023-02-02T10:40:16;8.65;;;4.72;;
209;SDS011;90;48.810;9.120;2023-02-02T10:43:02;9.25;;;3.80;;
209;SDS011;90;48.810;9.120;2023-02-02T10:49:30;7.72;;;4.40;;
209;SDS011;90;48.810;9.120;2023-02-02T10:52:39;11.23;;;3.80;;
209;SDS011;90;48.810;9.120;2023-02-02T10:55:14;9.52;;;4.13;;
209;SDS011;90;48.810;9.120;2023-02-02T10:57:49;6.30;;;4.13;;
209;SDS011;90;48.810;9.120;2023-02-02T11:00:24;11.52;;;4.00;;
209;SDS011;90;48.810;9.120;2023-02-02T11:03:00;6.47;;;4.00;;
209;SDS011;90;48.810;9.120;2023-02-02T11:05:31;6.65;;;4.10;;
209;SDS011;90;48.810;9.120;2023-02-02T11:08:18;9.20;;;4.35;;
209;SDS011;90;48.810;9.120;2023-02-02T11:10:53;8.88;;;3.92;;
209;SDS011;90;48.810;9.120;2023-02-02T11:16:37;11.18;;;4.63;;
209;SDS011;90;48.810;9.120;2023-02-02T11:19:20;9.13;;;4.53;;
209;SDS011;90;48.810;9.120;2023-02-02T11:22:34;7.68;;;3.83;;
209;SDS011;90;48.810;9.120;2023-02-02T11:25:06;5.57;;;3.88;;
209;SDS011;90;48.810;9.120;2023-02-02T11:27:50;6.65;;;4.10;;
209;SDS011;90;48.810;9.120;2023-02-02T11:30:20;9.65;;;5.03;;
209;SDS011;90;48.810;9.120;2023-02-02T11:32:52;9.07;;;4.30;;
209;SDS011;90;48.810;9.120;2023-02-02T11:35:22;7.25;;;4.55;;
209;SDS011;90;48.810;9.120;2023-02-02T11:37:52;9.48;;;4.00;;
209;SDS011;90;48.810;9.120;2023-02-02T11:40:37;7.35;;;4.05;;
209;SDS011;90;48.810;9.120;2023-02-02T11:43:16;10.40;;;4.05;;
209;SDS011;90;48.810;9.120;2023-02-02T11:46:02;7.18;;;4.28;;
209;SDS011;90;48.810;9.120;2023-02-02T11:49:13;14.95;;;4.35;;
209;SDS011;90;48.810;9.120;2023-02-02T11:51:47;6.28;;;3.95;;
209;SDS011;90;48.810;9.120;2023-02-02T11:54:24;6.55;;;3.53;;
209;SDS011;90;48.810;9.120;2023-02-02T11:56:55;7.97;;;4.00;;
209;SDS011;90;48.810;9.120;2023-02-02T12:00:14;6.82;;;3.60;;
209;SDS011;90;48.810;9.120;2023-02-02T12:02:50;9.38;;;3.80;;
209;SDS011;90;48.810;9.120;2023-02-02T12:05:33;7.72;;;3.90;;
209;SDS011;90;48.810;9.120;2023-02-02T12:14:30;6.78;;;4.03;;
209;SDS011;90;48.810;9.120;2023-02-02T12:17:08;5.90;;;3.80;;
209;SDS011;90;48.810;9.120;2023-02-02T12:22:49;6.50;;;3.90;;
209;SDS011;90;48.810;9.120;2023-02-02T12:26:49;5.00;;;4.03;;
209;SDS011;90;48.810;9.120;2023-02-02T12:32:03;4.50;;;3.80;;
209;SDS011;90;48.810;9.120;2023-02-02T12:35:03;3.95;;;3.78;;
209;SDS011;90;48.810;9.120;2023-02-02T12:37:53;7.57;;;3.70;;
209;SDS011;90;48.810;9.120;2023-02-02T12:44:13;3.58;;;3.40;;
209;SDS011;90;48.810;9.120;2023-02-02T12:49:45;5.53;;;3.80;;
209;SDS011;90;48.810;9.120;2023-02-02T12:52:39;7.18;;;3.70;;
209;SDS011;90;48.810;9.120;2023-02-02T12:55:17;7.32;;;4.07;;
209;SDS011;90;48.810;9.120;2023-02-02T12:57:55;7.03;;;4.18;;
209;SDS011;90;48.810;9.120;2023-02-02T13:03:51;6.53;;;4.28;;
209;SDS011;90;48.810;9.120;2023-02-02T13:06:40;6.10;;;3.95;;
209;SDS011;90;48.810;9.120;2023-02-02T13:10:13;12.73;;;4.35;;
209;SDS011;90;48.810;9.120;2023-02-02T13:13:08;7.90;;;4.30;;
209;SDS011;90;48.810;9.120;2023-02-02T13:15:39;8.50;;;3.85;;
209;SDS011;90;48.810;9.120;2023-02-02T13:21:32;4.85;;;4.40;;
209;SDS011;90;48.810;9.120;2023-02-02T13:24:03;11.57;;;4.43;;
209;SDS011;90;48.810;9.120;2023-02-02T13:26:40;8.63;;;4.43;;
209;SDS011;90;48.810;9.120;2023-02-02T13:29:29;9.07;;;4.15;;
209;SDS011;90;48.810;9.120;2023-02-02T13:32:03;10.27;;;4.40;;
209;SDS011;90;48.810;9.120;2023-02-02T13:34:41;9.38;;;4.25;;
209;SDS011;90;48.810;9.120;2023-02-02T13:37:21;5.50;;;4.10;;
209;SDS011;90;48.810;9.120;2023-02-02T13:40:03;12.23;;;4.20;;
209;SDS011;90;48.810;9.120;2023-02-02T14:11:17;9.35;;;5.28;;
209;SDS011;90;48.810;9.120;2023-02-02T14:13:51;10.57;;;4.07;;
209;SDS011;90;48.810;9.120;2023-02-02T14:16:43;6.38;;;3.90;;
209;SDS011;90;48.810;9.120;2023-02-02T14:22:37;7.25;;;4.20;;
209;SDS011;90;48.810;9.120;2023-02-02T14:34:13;7.25;;;4.45;;
209;SDS011;90;48.810;9.120;2023-02-02T14:36:57;9.15;;;4.25;;
209;SDS011;90;48.810;9.120;2023-02-02T14:39:53;7.28;;;3.60;;
209;SDS011;90;48.810;9.120;2023-02-02T14:42:38;11.27;;;4.30;;
209;SDS011;90;48.810;9.120;2023-02-02T14:45:32;9.00;;;4.40;;
209;SDS011;90;48.810;9.120;2023-02-02T14:48:01;10.48;;;3.90;;
209;SDS011;90;48.810;9.120;2023-02-02T14:50:48;14.50;;;3.83;;
209;SDS011;90;48.810;9.120;2023-02-02T14:53:19;8.40;;;4.07;;
209;SDS011;90;48.810;9.120;2023-02-02T14:55:59;6.45;;;4.20;;
209;SDS011;90;48.810;9.120;2023-02-02T14:58:33;5.07;;;4.38;;
209;SDS011;90;48.810;9.120;2023-02-02T15:01:10;16.70;;;4.22;;
209;SDS011;90;48.810;9.120;2023-02-02T15:03:49;11.07;;;4.07;;
209;SDS011;90;48.810;9.120;2023-02-02T15:06:29;10.27;;;4.63;;
209;SDS011;90;48.810;9.120;2023-02-02T15:14:46;7.00;;;3.70;;
209;SDS011;90;48.810;9.120;2023-02-02T15:17:21;6.55;;;3.60;;
209;SDS011;90;48.810;9.120;2023-02-02T15:19:52;9.07;;;4.00;;
209;SDS011;90;48.810;9.120;2023-02-02T15:22:28;6.17;;;3.47;;
209;SDS011;90;48.810;9.120;2023-02-02T15:25:03;7.57;;;3.53;;
209;SDS011;90;48.810;9.120;2023-02-02T15:27:38;4.80;;;3.40;;
209;SDS011;90;48.810;9.120;2023-02-02T15:30:10;8.70;;;4.20;;
209;SDS011;90;48.810;9.120;2023-02-02T15:32:40;7.10;;;3.80;;
209;SDS011;90;48.810;9.120;2023-02-02T15:35:10;6.90;;;3.65;;
209;SDS011;90;48.810;9.120;2023-02-02T15:37:43;7.07;;;3.90;;
209;SDS011;90;48.810;9.120;2023-02-02T15:40:14;9.68;;;4.38;;
209;SDS011;90;48.810;9.120;2023-02-02T15:42:47;9.18;;;4.38;;
209;SDS011;90;48.810;9.120;2023-02-02T15:45:30;7.60;;;3.65;;
209;SDS011;90;48.810;9.120;2023-02-02T15:48:04;8.07;;;3.97;;
209;SDS011;90;48.810;9.120;2023-02-02T15:50:34;8.68;;;3.90;;
209;SDS011;90;48.810;9.120;2023-02-02T15:53:03;5.28;;;3.20;;
209;SDS011;90;48.810;9.120;2023-02-02T15:55:31;11.50;;;4.10;;
209;SDS011;90;48.810;9.120;2023-02-02T15:58:00;6.05;;;3.58;;
209;SDS011;90;48.810;9.120;2023-02-02T16:00:28;17.20;;;4.10;;
209;SDS011;90;48.810;9.120;2023-02-02T16:02:58;5.45;;;3.42;;
209;SDS011;90;48.810;9.120;2023-02-02T16:05:43;9.75;;;3.90;;
209;SDS011;90;48.810;9.120;2023-02-02T16:08:14;5.87;;;3.90;;
209;SDS011;90;48.810;9.120;2023-02-02T16:10:44;11.30;;;3.97;;
209;SDS011;90;48.810;9.120;2023-02-02T16:13:23;8.90;;;3.67;;
209;SDS011;90;48.810;9.120;2023-02-02T16:15:55;8.23;;;3.90;;
209;SDS011;90;48.810;9.120;2023-02-02T16:18:24;9.65;;;4.20;;
209;SDS011;90;48.810;9.120;2023-02-02T16:20:53;5.95;;;3.58;;
209;SDS011;90;48.810;9.120;2023-02-02T16:23:24;5.45;;;3.80;;
209;SDS011;90;48.810;9.120;2023-02-02T16:25:55;8.40;;;4.35;;
209;SDS011;90;48.810;9.120;2023-02-02T16:28:25;10.48;;;4.00;;
209;SDS011;90;48.810;9.120;2023-02-02T16:30:53;5.55;;;3.90;;
209;SDS011;90;48.810;9.120;2023-02-02T16:33:26;8.82;;;3.78;;
209;SDS011;90;48.810;9.120;2023-02-02T16:39:23;5.70;;;3.75;;
209;SDS011;90;48.810;9.120;2023-02-02T16:42:20;10.25;;;3.88;;
209;SDS011;90;48.810;9.120;2023-02-02T16:54:53;6.53;;;3.65;;
209;SDS011;90;48.810;9.120;2023-02-02T17:01:37;4.32;;;3.08;;
209;SDS011;90;48.810;9.120;2023-02-02T17:04:40;2.95;;;2.75;;
209;SDS011;90;48.810;9.120;2023-02-02T17:07:27;5.43;;;2.95;;
209;SDS011;90;48.810;9.120;2023-02-02T17:10:19;7.65;;;3.00;;
209;SDS011;90;48.810;9.120;2023-02-02T17:12:55;2.67;;;2.53;;
209;SDS011;90;48.810;9.120;2023-02-02T17:15:54;5.80;;;2.85;;
209;SDS011;90;48.810;9.120;2023-02-02T17:18:29;7.97;;;3.83;;
209;SDS011;90;48.810;9.120;2023-02-02T17:21:11;3.60;;;3.05;;
209;SDS011;90;48.810;9.120;2023-02-02T17:27:26;4.07;;;3.40;;
209;SDS011;90;48.810;9.120;2023-02-02T17:30:09;5.53;;;3.20;;
209;SDS011;90;48.810;9.120;2023-02-02T17:32:52;3.50;;;3.30;;
209;SDS011;90;48.810;9.120;2023-02-02T17:39:17;4.15;;;3.17;;
209;SDS011;90;48.810;9.120;2023-02-02T17:41:49;7.00;;;3.20;;
209;SDS011;90;48.810;9.120;2023-02-02T17:48:17;3.00;;;2.80;;
209;SDS011;90;48.810;9.120;2023-02-02T17:50:56;4.78;;;2.80;;
209;SDS011;90;48.810;9.120;2023-02-02T17:56:24;3.75;;;2.90;;
209;SDS011;90;48.810;9.120;2023-02-02T17:58:56;8.00;;;3.25;;
209;SDS011;90;48.810;9.120;2023-02-02T18:01:26;2.97;;;2.78;;
209;SDS011;90;48.810;9.120;2023-02-02T18:03:55;3.42;;;3.20;;
209;SDS011;90;48.810;9.120;2023-02-02T18:06:28;4.40;;;3.47;;
209;SDS011;90;48.810;9.120;2023-02-02T18:09:05;6.10;;;3.13;;
209;SDS011;90;48.810;9.120;2023-02-02T18:11:47;3.55;;;3.35;;
209;SDS011;90;48.810;9.120;2023-02-02T18:14:23;4.05;;;3.05;;
209;SDS011;90;48.810;9.120;2023-02-02T18:17:12;3.35;;;3.15;;
209;SDS011;90;48.810;9.120;2023-02-02T18:19:40;3.50;;;3.20;;
209;SDS011;90;48.810;9.120;2023-02-02T18:22:09;3.15;;;2.72;;
209;SDS011;90;48.810;9.120;2023-02-02T18:24:43;3.28;;;3.08;;
209;SDS011;90;48.810;9.120;2023-02-02T18:30:49;3.67;;;2.63;;
209;SDS011;90;48.810;9.120;2023-02-02T18:33:26;3.80;;;3.38;;
209;SDS011;90;48.810;9.120;2023-02-02T18:35:54;5.03;;;2.85;;
209;SDS011;90;48.810;9.120;2023-02-02T18:43:24;3.40;;;3.00;;
209;SDS011;90;48.810;9.120;2023-02-02T18:45:20;5.80;;;3.00;;
209;SDS011;90;48.810;9.120;2023-02-02T18:51:02;3.15;;;2.92;;
209;SDS011;90;48.810;9.120;2023-02-02T18:53:47;3.47;;;3.28;;
209;SDS011;90;48.810;9.120;2023-02-02T18:56:17;3.58;;;3.38;;
209;SDS011;90;48.810;9.120;2023-02-02T18:59:20;5.22;;;3.20;;
209;SDS011;90;48.810;9.120;2023-02-02T19:05:02;9.20;;;3.63;;
209;SDS011;90;48.810;9.120;2023-02-02T19:14:14;3.40;;;2.90;;
209;SDS011;90;48.810;9.120;2023-02-02T19:17:01;3.10;;;2.90;;